Time;durP1;ratioP1;P1;durP2;ratioP2;P2;SDS_P1;SDS_P2;PMS_P1;PMS_P2;Temp;Humidity;BMP_temperature;BMP_pressure;BME280_temperature;BME280_humidity;BME280_pressure;Samples;Min_cycle;Max_cycle;Signal;HPM_P1;HPM_P2
2022/11/12 00:02:42;;;;;;;;;;;;;;;9.52;100.00;101350.47;4507777;31;35676;-71
2022/11/12 00:05:48;;;;;;;;;;;;;;;8.49;100.00;101359.56;4511701;31;35969;-72
2022/11/12 00:08:52;;;;;;;;;;;;;;;8.84;100.00;101367.34;4512024;31;36374;-72
2022/11/12 00:11:57;;;;;;;;;;;;;;;8.99;100.00;101366.66;4512146;31;34125;-71
2022/11/12 00:15:01;;;;;;;;;;;;;;;9.02;100.00;101366.16;4506986;31;36505;-71
2022/11/12 00:18:06;;;;;;;;;;;;;;;9.55;100.00;101347.19;4511239;31;35144;-74
2022/11/12 00:21:11;;;;;;;;;;;;;;;7.69;100.00;101353.56;4508588;31;34519;-71
2022/11/12 00:24:16;;;;;;;;;;;;;;;7.48;100.00;101349.66;4511246;31;33829;-71
2022/11/12 00:27:20;;;;;;;;;;;;;;;8.75;100.00;101347.84;4511687;31;35832;-71
2022/11/12 00:30:25;;;;;;;;;;;;;;;8.25;100.00;101348.03;4509723;31;35782;-72
2022/11/12 00:33:29;;;;;;;;;;;;;;;8.20;100.00;101337.06;4511419;31;35140;-72
2022/11/12 00:36:33;;;;;;;;;;;;;;;8.54;100.00;101341.34;4513077;31;32958;-71
2022/11/12 00:39:38;;;;;;;;;;;;;;;7.57;100.00;101348.19;4512479;31;35406;-71
2022/11/12 00:42:42;;;;;;;;;;;;;;;7.20;100.00;101348.69;4512498;31;35091;-71
2022/11/12 00:45:46;;;;;;;;;;;;;;;7.36;100.00;101340.75;4507625;31;33521;-71
2022/11/12 00:48:51;;;;;;;;;;;;;;;7.54;100.00;101336.94;4510891;31;34068;-71
2022/11/12 00:51:55;;;;;;;;;;;;;;;7.19;100.00;101327.94;4511186;31;35708;-71
2022/11/12 00:55:00;;;;;;;;;;;;;;;7.40;100.00;101320.09;4511932;31;36187;-71
2022/11/12 00:58:04;;;;;;;;;;;;;;;7.58;100.00;101317.09;4511613;31;34912;-71
2022/11/12 01:01:11;;;;;;;;;;;;;;;7.25;100.00;101334.28;4511463;31;33784;-72
2022/11/12 01:04:15;;;;;;;;;;;;;;;8.28;100.00;101333.88;4500424;31;34585;-72
2022/11/12 01:07:20;;;;;;;;;;;;;;;8.76;100.00;101324.87;4512158;31;35229;-71
2022/11/12 01:10:24;;;;;;;;;;;;;;;8.83;100.00;101321.97;4509993;31;34988;-71
2022/11/12 01:13:29;;;;;;;;;;;;;;;9.07;100.00;101316.97;4512845;31;34021;-71
2022/11/12 01:16:35;;;;;;;;;;;;;;;9.24;100.00;101312.22;4512098;31;34960;-71
2022/11/12 01:19:39;;;;;;;;;;;;;;;9.29;100.00;101307.87;4509406;31;35131;-71
2022/11/12 01:22:43;;;;;;;;;;;;;;;9.51;100.00;101299.56;4501040;31;34938;-71
2022/11/12 01:25:48;;;;;;;;;;;;;;;9.63;100.00;101301.00;4510852;31;34603;-71
2022/11/12 01:28:53;;;;;;;;;;;;;;;10.06;100.00;101300.97;4511695;31;34988;-71
2022/11/12 01:31:57;;;;;;;;;;;;;;;9.99;100.00;101292.16;4511100;31;36190;-71
2022/11/12 01:35:01;;;;;;;;;;;;;;;8.51;100.00;101291.84;4511811;31;34921;-71
2022/11/12 01:38:05;;;;;;;;;;;;;;;7.79;100.00;101303.75;4511423;31;34294;-71
2022/11/12 01:41:11;;;;;;;;;;;;;;;8.23;100.00;101290.13;4506624;31;34908;-71
2022/11/12 01:44:18;;;;;;;;;;;;;;;8.05;100.00;101300.31;4510151;31;35166;-71
2022/11/12 01:47:27;;;;;;;;;;;;;;;8.50;100.00;101299.19;4500668;31;35600;-71
2022/11/12 01:50:32;;;;;;;;;;;;;;;8.34;100.00;101297.38;4511148;31;35034;-71
2022/11/12 01:53:38;;;;;;;;;;;;;;;8.00;100.00;101292.03;4504949;31;33642;-71
2022/11/12 01:56:43;;;;;;;;;;;;;;;8.14;100.00;101294.37;4509876;31;35282;-71
2022/11/12 01:59:48;;;;;;;;;;;;;;;8.29;100.00;101284.47;4503109;31;35322;-71
2022/11/12 02:03:02;;;;;;;;;;;;;;;8.33;100.00;101285.59;4503436;31;34128;-71
2022/11/12 02:06:10;;;;;;;;;;;;;;;9.11;100.00;101289.97;4505861;31;34918;-71
2022/11/12 02:09:15;;;;;;;;;;;;;;;8.19;100.00;101295.25;4505164;31;35987;-71
2022/11/12 02:15:42;;;;;;;;;;;;;;;7.72;100.00;101294.94;4509573;31;34118;-71
2022/11/12 02:18:46;;;;;;;;;;;;;;;8.81;100.00;101291.31;4512569;31;35722;-71
2022/11/12 02:21:51;;;;;;;;;;;;;;;8.33;100.00;101273.84;4512295;31;35407;-71
2022/11/12 02:24:55;;;;;;;;;;;;;;;7.81;100.00;101272.41;4502964;31;34927;-72
2022/11/12 02:28:01;;;;;;;;;;;;;;;8.59;100.00;101260.50;4512168;31;34098;-71
2022/11/12 02:31:05;;;;;;;;;;;;;;;8.23;100.00;101265.56;4509757;31;34618;-71
2022/11/12 02:34:10;;;;;;;;;;;;;;;7.52;100.00;101260.81;4508732;31;35132;-71
2022/11/12 02:37:14;;;;;;;;;;;;;;;7.42;100.00;101269.66;4505851;31;34355;-71
2022/11/12 02:40:18;;;;;;;;;;;;;;;7.62;100.00;101263.69;4511807;31;34177;-71
2022/11/12 02:43:23;;;;;;;;;;;;;;;7.29;100.00;101266.50;4513462;31;35623;-71
2022/11/12 02:46:27;;;;;;;;;;;;;;;7.45;100.00;101273.81;4508934;31;36160;-71
2022/11/12 02:49:31;;;;;;;;;;;;;;;6.96;100.00;101268.94;4512062;31;34997;-71
2022/11/12 02:52:36;;;;;;;;;;;;;;;6.99;100.00;101283.97;4512846;31;34090;-71
2022/11/12 02:55:41;;;;;;;;;;;;;;;7.47;100.00;101282.56;4511670;31;35842;-71
2022/11/12 02:58:46;;;;;;;;;;;;;;;7.66;100.00;101281.22;4513720;31;35217;-71
2022/11/12 03:01:50;;;;;;;;;;;;;;;7.05;100.00;101280.25;4505148;31;35750;-71
2022/11/12 03:04:55;;;;;;;;;;;;;;;6.94;100.00;101283.91;4503863;31;34883;-71
2022/11/12 03:08:00;;;;;;;;;;;;;;;6.73;100.00;101274.53;4513140;31;34580;-71
2022/11/12 03:11:05;;;;;;;;;;;;;;;7.37;100.00;101276.94;4506927;31;35813;-71
2022/11/12 03:14:09;;;;;;;;;;;;;;;7.01;100.00;101276.41;4505108;31;35626;-71
2022/11/12 03:17:14;;;;;;;;;;;;;;;7.08;100.00;101278.94;4512708;31;32751;-71
2022/11/12 03:20:19;;;;;;;;;;;;;;;7.47;100.00;101277.13;4507573;31;35430;-71
2022/11/12 03:23:24;;;;;;;;;;;;;;;7.85;100.00;101272.72;4510647;31;36290;-71
2022/11/12 03:26:29;;;;;;;;;;;;;;;7.73;100.00;101277.47;4512582;31;34421;-71
2022/11/12 03:29:39;;;;;;;;;;;;;;;8.66;100.00;101275.59;4511334;31;34826;-72
2022/11/12 03:32:43;;;;;;;;;;;;;;;7.65;100.00;101274.09;4512424;31;34931;-71
2022/11/12 03:35:47;;;;;;;;;;;;;;;7.87;100.00;101286.94;4511859;31;35273;-71
2022/11/12 03:38:52;;;;;;;;;;;;;;;6.86;100.00;101279.69;4512639;31;34829;-71
2022/11/12 03:41:56;;;;;;;;;;;;;;;7.04;100.00;101281.34;4512991;31;35005;-71
2022/11/12 03:45:01;;;;;;;;;;;;;;;7.77;100.00;101287.66;4510728;31;34902;-71
2022/11/12 03:48:05;;;;;;;;;;;;;;;7.94;100.00;101282.16;4506105;31;35242;-71
2022/11/12 03:51:15;;;;;;;;;;;;;;;6.94;100.00;101279.28;4511632;31;34499;-71
2022/11/12 03:54:19;;;;;;;;;;;;;;;7.33;100.00;101282.09;4512207;31;34545;-71
2022/11/12 03:57:23;;;;;;;;;;;;;;;7.55;100.00;101286.78;4505718;31;34928;-71
2022/11/12 04:00:28;;;;;;;;;;;;;;;6.88;100.00;101284.87;4510763;31;35246;-71
2022/11/12 04:03:33;;;;;;;;;;;;;;;8.00;100.00;101292.03;4512727;31;34641;-71
2022/11/12 04:10:01;;;;;;;;;;;;;;;8.62;100.00;101295.50;4511392;31;34999;-72
2022/11/12 04:23:15;;;;;;;;;;;;;;;8.65;100.00;101281.31;4511741;31;35019;-71
2022/11/12 04:26:22;;;;;;;;;;;;;;;8.64;100.00;101275.03;4512827;31;35511;-71
2022/11/12 04:32:53;;;;;;;;;;;;;;;8.19;100.00;101273.41;4505582;31;34999;-71
2022/11/12 04:35:57;;;;;;;;;;;;;;;7.95;100.00;101270.13;4510775;31;34459;-71
2022/11/12 04:39:02;;;;;;;;;;;;;;;7.10;100.00;101264.00;4510672;31;35247;-71
2022/11/12 04:45:30;;;;;;;;;;;;;;;7.00;100.00;101269.28;4508544;31;34097;-71
2022/11/12 04:48:35;;;;;;;;;;;;;;;8.09;100.00;101271.41;4503683;31;35061;-71
2022/11/12 04:55:02;;;;;;;;;;;;;;;8.54;100.00;101270.31;4511306;31;34984;-71
2022/11/12 04:58:07;;;;;;;;;;;;;;;8.74;100.00;101274.31;4510835;31;34944;-72
2022/11/12 05:01:11;;;;;;;;;;;;;;;8.74;100.00;101274.31;4511800;31;34954;-71
2022/11/12 05:04:16;;;;;;;;;;;;;;;8.71;100.00;101267.47;4511451;31;36232;-71
2022/11/12 05:07:21;;;;;;;;;;;;;;;8.53;100.00;101274.09;4511101;31;34518;-72
2022/11/12 05:10:25;;;;;;;;;;;;;;;8.16;100.00;101278.56;4504011;31;34089;-72
2022/11/12 05:13:30;;;;;;;;;;;;;;;7.91;100.00;101287.25;4511891;31;34895;-71
2022/11/12 05:16:35;;;;;;;;;;;;;;;8.03;100.00;101280.63;4501543;31;35185;-71
2022/11/12 05:19:40;;;;;;;;;;;;;;;7.62;100.00;101279.22;4506144;31;33520;-71
2022/11/12 05:22:44;;;;;;;;;;;;;;;7.64;100.00;101277.91;4512050;31;33694;-71
2022/11/12 05:26:08;;;;;;;;;;;;;;;7.52;100.00;101281.81;4508627;31;35856;-71
2022/11/12 05:29:13;;;;;;;;;;;;;;;7.38;100.00;101279.44;4510417;31;36375;-71
2022/11/12 05:32:17;;;;;;;;;;;;;;;7.77;100.00;101292.25;4503997;31;34857;-71
2022/11/12 05:35:21;;;;;;;;;;;;;;;7.93;100.00;101302.31;4505080;31;35152;-71
2022/11/12 05:38:26;;;;;;;;;;;;;;;8.15;100.00;101290.59;4511806;31;34755;-71
2022/11/12 05:41:31;;;;;;;;;;;;;;;8.27;100.00;101285.81;4511034;31;35640;-71
2022/11/12 05:44:55;;;;;;;;;;;;;;;7.87;100.00;101295.13;4513362;31;34593;-71
2022/11/12 05:48:00;;;;;;;;;;;;;;;7.92;100.00;101295.22;4513921;31;34176;-71
2022/11/12 05:51:05;;;;;;;;;;;;;;;8.18;100.00;101287.34;4514297;31;35786;-71
2022/11/12 05:54:17;;;;;;;;;;;;;;;8.17;100.00;101283.78;4513636;31;35179;-71
2022/11/12 05:57:21;;;;;;;;;;;;;;;7.78;100.00;101286.56;4511852;31;35752;-71
2022/11/12 06:00:26;;;;;;;;;;;;;;;7.76;100.00;101293.34;4511307;31;34912;-71
2022/11/12 06:03:30;;;;;;;;;;;;;;;7.76;100.00;101304.25;4513606;31;34912;-71
2022/11/12 06:06:34;;;;;;;;;;;;;;;6.88;100.00;101306.69;4513433;31;35270;-72
2022/11/12 06:09:39;;;;;;;;;;;;;;;7.77;100.00;101311.34;4508454;31;34859;-71
2022/11/12 06:12:43;;;;;;;;;;;;;;;7.50;100.00;101309.34;4513224;31;35016;-71
2022/11/12 06:15:47;;;;;;;;;;;;;;;7.30;100.00;101314.47;4513518;31;34666;-71
2022/11/12 06:18:52;;;;;;;;;;;;;;;6.10;100.00;101321.78;4512268;31;35119;-71
2022/11/12 06:21:56;;;;;;;;;;;;;;;7.35;100.00;101318.13;4514770;31;34881;-71
2022/11/12 06:25:01;;;;;;;;;;;;;;;7.53;100.00;101325.19;4510891;31;33773;-71
2022/11/12 06:28:05;;;;;;;;;;;;;;;7.56;100.00;101335.63;4507399;31;34929;-71
2022/11/12 06:31:10;;;;;;;;;;;;;;;7.26;100.00;101335.13;4513718;31;35242;-71
2022/11/12 06:34:14;;;;;;;;;;;;;;;6.66;100.00;101336.50;4512672;31;35424;-71
2022/11/12 06:37:20;;;;;;;;;;;;;;;7.16;100.00;101342.06;4512791;31;34505;-71
2022/11/12 06:40:25;;;;;;;;;;;;;;;7.41;100.00;101349.03;4513399;31;34942;-71
2022/11/12 06:43:30;;;;;;;;;;;;;;;6.47;100.00;101349.50;4512101;31;35122;-71
2022/11/12 06:46:35;;;;;;;;;;;;;;;7.17;100.00;101359.25;4513746;31;35682;-71
2022/11/12 06:49:39;;;;;;;;;;;;;;;7.71;100.00;101362.28;4513982;31;34660;-71
2022/11/12 06:52:44;;;;;;;;;;;;;;;7.85;100.00;101365.50;4511371;31;34902;-72
2022/11/12 06:55:48;;;;;;;;;;;;;;;8.16;100.00;101363.22;4504934;31;36107;-71
2022/11/12 06:58:52;;;;;;;;;;;;;;;8.19;100.00;101359.97;4511158;31;35737;-72
2022/11/12 07:01:57;;;;;;;;;;;;;;;8.04;100.00;101357.88;4512412;31;34931;-72
2022/11/12 07:05:02;;;;;;;;;;;;;;;6.25;100.00;101357.50;4508590;31;35778;-71
2022/11/12 07:08:06;;;;;;;;;;;;;;;6.59;100.00;101355.72;4512656;31;36624;-72
2022/11/12 07:11:11;;;;;;;;;;;;;;;7.53;100.00;101360.66;4512629;31;34956;-71
2022/11/12 07:14:15;;;;;;;;;;;;;;;7.62;100.00;101361.06;4513083;31;34177;-72
2022/11/12 07:17:19;;;;;;;;;;;;;;;7.78;100.00;101370.31;4511550;31;35898;-72
2022/11/12 07:20:24;;;;;;;;;;;;;;;8.04;100.00;101385.16;4513607;31;35198;-72
2022/11/12 07:23:29;;;;;;;;;;;;;;;7.80;100.00;101387.28;4507546;31;35665;-73
2022/11/12 07:26:34;;;;;;;;;;;;;;;7.03;100.00;101382.44;4505871;31;35451;-72
2022/11/12 07:29:38;;;;;;;;;;;;;;;7.28;100.00;101379.34;4512014;31;34905;-72
2022/11/12 07:32:51;;;;;;;;;;;;;;;6.17;100.00;101377.72;4513387;31;35068;-72
2022/11/12 07:36:00;;;;;;;;;;;;;;;6.28;100.00;101385.06;4512515;31;35770;-71
2022/11/12 07:39:04;;;;;;;;;;;;;;;6.61;100.00;101377.28;4508367;31;32798;-73
2022/11/12 07:42:08;;;;;;;;;;;;;;;5.64;100.00;101373.25;4516856;31;34419;-75
2022/11/12 07:45:12;;;;;;;;;;;;;;;5.52;100.00;101370.53;4516711;31;36079;-75
2022/11/12 07:48:17;;;;;;;;;;;;;;;6.51;100.00;101381.44;4515848;31;34949;-75
2022/11/12 07:51:22;;;;;;;;;;;;;;;5.86;100.00;101360.72;4513193;31;34205;-75
2022/11/12 07:54:30;;;;;;;;;;;;;;;6.75;100.00;101367.75;4516237;31;34898;-75
2022/11/12 07:57:34;;;;;;;;;;;;;;;7.85;100.00;101371.81;4517444;31;35652;-75
2022/11/12 08:00:38;;;;;;;;;;;;;;;6.52;100.00;101368.69;4517869;31;35035;-74
2022/11/12 08:03:43;;;;;;;;;;;;;;;7.25;100.00;101368.91;4516324;31;34986;-74
2022/11/12 08:06:48;;;;;;;;;;;;;;;8.30;100.00;101381.69;4508093;31;36230;-74
2022/11/12 08:09:53;;;;;;;;;;;;;;;8.57;100.00;101389.19;4516908;31;36149;-74
2022/11/12 08:12:57;;;;;;;;;;;;;;;8.83;100.00;101387.56;4512963;31;34946;-75
2022/11/12 08:16:02;;;;;;;;;;;;;;;9.53;100.00;101390.41;4516940;31;34175;-74
2022/11/12 08:19:06;;;;;;;;;;;;;;;9.48;100.00;101398.56;4498724;31;34987;-74
2022/11/12 08:22:11;;;;;;;;;;;;;;;9.70;100.00;101396.56;4512475;31;36135;-74
2022/11/12 08:25:17;;;;;;;;;;;;;;;9.94;100.00;101405.25;4515826;31;35551;-74
2022/11/12 08:28:22;;;;;;;;;;;;;;;9.81;100.00;101394.72;4506063;31;34122;-74
2022/11/12 08:31:27;;;;;;;;;;;;;;;10.53;100.00;101402.31;4514393;31;35024;-74
2022/11/12 08:34:32;;;;;;;;;;;;;;;10.67;100.00;101399.91;4514925;31;36129;-74
2022/11/12 08:37:36;;;;;;;;;;;;;;;10.68;100.00;101395.25;4508978;31;34859;-74
2022/11/12 08:40:40;;;;;;;;;;;;;;;11.31;100.00;101393.19;4514592;31;34995;-74
2022/11/12 08:43:46;;;;;;;;;;;;;;;11.09;100.00;101395.34;4510681;31;34884;-74
2022/11/12 08:46:51;;;;;;;;;;;;;;;11.53;100.00;101398.41;4516599;31;34994;-74
2022/11/12 08:49:56;;;;;;;;;;;;;;;11.22;100.00;101392.91;4514732;31;35534;-74
2022/11/12 08:53:02;;;;;;;;;;;;;;;11.46;100.00;101395.09;4515475;31;34079;-74
2022/11/12 08:56:06;;;;;;;;;;;;;;;11.60;100.00;101404.44;4500765;31;34932;-74
2022/11/12 08:59:10;;;;;;;;;;;;;;;11.83;100.00;101407.72;4515966;31;34902;-74
2022/11/12 09:02:15;;;;;;;;;;;;;;;11.85;100.00;101408.28;4515941;31;34865;-74
2022/11/12 09:05:19;;;;;;;;;;;;;;;11.89;100.00;101409.38;4516745;31;34163;-73
2022/11/12 09:08:24;;;;;;;;;;;;;;;12.06;100.00;101420.09;4493633;31;34960;-74
2022/11/12 09:11:29;;;;;;;;;;;;;;;11.93;100.00;101418.75;4516016;31;35238;-74
2022/11/12 09:14:34;;;;;;;;;;;;;;;11.76;100.00;101429.97;4515733;31;35280;-74
2022/11/12 09:17:38;;;;;;;;;;;;;;;11.92;100.00;101430.81;4513801;31;34207;-74
2022/11/12 09:20:42;;;;;;;;;;;;;;;12.08;100.00;101435.19;4510563;31;34974;-75
2022/11/12 09:23:47;;;;;;;;;;;;;;;12.00;100.00;101430.25;4514267;31;34222;-74
2022/11/12 09:26:52;;;;;;;;;;;;;;;11.97;100.00;101433.56;4516303;31;35501;-73
2022/11/12 09:29:57;;;;;;;;;;;;;;;12.13;100.00;101437.94;4514053;31;34807;-73
2022/11/12 09:33:01;;;;;;;;;;;;;;;12.25;100.00;101439.56;4508129;31;34012;-74
2022/11/12 09:36:06;;;;;;;;;;;;;;;11.91;100.00;101448.41;4516849;31;34549;-73
2022/11/12 09:39:10;;;;;;;;;;;;;;;11.95;100.00;101456.91;4516654;31;35004;-74
2022/11/12 09:42:16;;;;;;;;;;;;;;;11.84;100.00;101453.31;4510911;31;34174;-74
2022/11/12 09:45:28;;;;;;;;;;;;;;;11.96;100.00;101453.06;4515642;31;34581;-74
2022/11/12 09:48:38;;;;;;;;;;;;;;;12.22;100.00;101453.87;4512344;31;35757;-75
2022/11/12 09:51:45;;;;;;;;;;;;;;;12.22;100.00;101442.88;4501924;31;35237;-74
2022/11/12 09:54:51;;;;;;;;;;;;;;;11.41;100.00;101445.34;4510896;31;33976;-74
2022/11/12 09:57:56;;;;;;;;;;;;;;;11.87;100.00;101447.31;4516473;31;35077;-75
2022/11/12 10:01:02;;;;;;;;;;;;;;;11.84;100.00;101450.56;4516761;31;35205;-75
2022/11/12 10:04:13;;;;;;;;;;;;;;;12.17;100.00;101456.63;4507981;31;35582;-75
2022/11/12 10:07:27;;;;;;;;;;;;;;;12.12;100.00;101458.28;4513395;31;34115;-75
2022/11/12 10:10:31;;;;;;;;;;;;;;;12.37;100.00;101464.81;4508252;31;34955;-75
2022/11/12 10:13:48;;;;;;;;;;;;;;;12.12;100.00;101465.69;4511909;31;36092;-76
2022/11/12 10:16:55;;;;;;;;;;;;;;;12.75;100.00;101465.25;4517498;31;35781;-75
2022/11/12 10:20:00;;;;;;;;;;;;;;;12.56;100.00;101467.81;4504583;31;34072;-75
2022/11/12 10:23:04;;;;;;;;;;;;;;;12.57;99.99;101463.94;4507395;31;37414;-76
2022/11/12 10:26:13;;;;;;;;;;;;;;;13.01;99.32;101465.97;4502887;31;36657;-76
2022/11/12 10:29:17;;;;;;;;;;;;;;;13.11;100.00;101460.41;4505775;31;34949;-75
2022/11/12 10:32:21;;;;;;;;;;;;;;;13.22;96.10;101452.91;4509128;31;33720;-75
2022/11/12 10:35:26;;;;;;;;;;;;;;;13.22;99.28;101461.19;4510365;31;34875;-75
2022/11/12 10:38:30;;;;;;;;;;;;;;;13.79;93.09;101456.12;4509857;31;35220;-75
2022/11/12 10:41:34;;;;;;;;;;;;;;;13.69;93.39;101455.09;4502032;31;36515;-75
2022/11/12 10:44:41;;;;;;;;;;;;;;;13.72;94.41;101449.03;4507941;31;35072;-75
2022/11/12 10:47:45;;;;;;;;;;;;;;;13.18;94.97;101449.91;4504930;31;34918;-75
2022/11/12 10:50:49;;;;;;;;;;;;;;;12.47;100.00;101442.81;4505715;31;36184;-75
2022/11/12 10:53:54;;;;;;;;;;;;;;;12.99;97.68;101438.72;4505579;31;34849;-75
2022/11/12 10:57:04;;;;;;;;;;;;;;;13.39;95.97;101436.87;4506124;31;34981;-75
2022/11/12 11:00:12;;;;;;;;;;;;;;;13.89;93.63;101423.81;4506819;31;35134;-75
2022/11/12 11:03:20;;;;;;;;;;;;;;;14.10;91.63;101429.13;4512652;31;37069;-74
2022/11/12 11:06:25;;;;;;;;;;;;;;;14.14;89.87;101421.88;4506251;31;35664;-75
2022/11/12 11:09:30;;;;;;;;;;;;;;;13.53;92.58;101436.22;4500288;31;34897;-75
2022/11/12 11:12:35;;;;;;;;;;;;;;;14.08;90.12;101434.09;4510396;31;35613;-75
2022/11/12 11:15:39;;;;;;;;;;;;;;;14.48;90.81;101423.72;4504469;31;34736;-76
2022/11/12 11:19:00;;;;;;;;;;;;;;;14.24;89.68;101419.03;4502505;31;34917;-76
2022/11/12 11:22:06;;;;;;;;;;;;;;;13.55;93.05;101411.97;4507498;31;34510;-75
2022/11/12 11:25:21;;;;;;;;;;;;;;;14.03;90.31;101412.09;4494739;31;35749;-75
2022/11/12 11:28:36;;;;;;;;;;;;;;;13.62;91.64;101402.25;4510149;31;35128;-75
2022/11/12 11:32:04;;;;;;;;;;;;;;;14.49;88.60;101397.81;4509106;31;34760;-76
2022/11/12 11:35:27;;;;;;;;;;;;;;;14.84;86.63;101404.84;4497433;31;32723;-75
2022/11/12 11:38:41;;;;;;;;;;;;;;;15.03;85.26;101413.13;4502036;31;228168;-75
2022/11/12 11:41:51;;;;;;;;;;;;;;;14.57;88.63;101402.69;4504036;31;36110;-75
2022/11/12 11:45:05;;;;;;;;;;;;;;;15.09;86.97;101411.12;4502444;31;34764;-75
2022/11/12 11:48:51;;;;;;;29.90;17.55;;;;;;;15.47;83.72;101406.37;4509842;31;33576;-74
2022/11/12 11:52:25;;;;;;;34.67;17.75;;;;;;;15.55;83.39;101405.72;4498277;31;35518;-75
2022/11/12 11:55:35;;;;;;;29.15;17.25;;;;;;;15.31;85.49;101400.28;4491390;31;34999;-75
2022/11/12 11:58:54;;;;;;;31.42;19.23;;;;;;;15.61;82.11;101384.34;4509616;31;34397;-75
2022/11/12 12:02:24;;;;;;;26.70;17.37;;;;;;;15.99;81.53;101392.53;4511514;31;34009;-75
2022/11/12 12:05:32;;;;;;;30.33;17.95;;;;;;;15.45;82.79;101389.28;4508154;31;34269;-76
2022/11/12 12:08:56;;;;;;;28.73;17.92;;;;;;;15.58;82.85;101391.28;4506382;31;35029;-75
2022/11/12 12:12:16;;;;;;;26.52;15.60;;;;;;;15.65;80.06;101386.22;4509068;31;35157;-75
2022/11/12 12:16:06;;;;;;;25.90;15.13;;;;;;;16.29;76.42;101380.09;4503945;31;35053;-75
2022/11/12 12:19:33;;;;;;;25.17;16.60;;;;;;;15.77;81.22;101383.00;4509310;31;33590;-74
2022/11/12 12:22:48;;;;;;;30.83;17.05;;;;;;;15.84;80.62;101379.81;4510485;31;35034;-74
2022/11/12 12:25:55;;;;;;;29.87;18.08;;;;;;;16.07;79.85;101376.06;4505903;31;34149;-75
2022/11/12 12:29:10;;;;;;;;;;;;;;;15.32;82.63;101368.78;4500588;31;34142;-75
2022/11/12 12:32:18;;;;;;;;;;;;;;;15.66;83.11;101360.22;4507892;31;34577;-74
2022/11/12 12:35:32;;;;;;;;;;;;;;;15.68;82.62;101358.00;4508572;31;34678;-74
2022/11/12 12:38:37;;;;;;;;;;;;;;;15.73;82.37;101355.13;4504995;31;35647;-74
2022/11/12 12:41:53;;;;;;;;;;;;;;;16.35;78.83;101365.03;4509588;31;35041;-75
2022/11/12 12:44:59;;;;;;;;;;;;;;;16.41;77.21;101359.06;4508664;31;35015;-74
2022/11/12 12:48:05;;;;;;;;;;;;;;;16.01;79.95;101355.16;4503976;31;37377;-75
2022/11/12 12:51:09;;;;;;;;;;;;;;;16.28;78.23;101370.13;4496706;31;34422;-75
2022/11/12 12:54:33;;;;;;;;;;;;;;;16.58;75.77;101360.38;4508715;31;33436;-74
2022/11/12 12:57:38;;;;;;;;;;;;;;;16.03;78.93;101366.75;4510796;31;35038;-74
2022/11/12 13:00:47;;;;;;;;;;;;;;;15.94;80.17;101361.12;4495701;31;34776;-75
2022/11/12 13:04:06;;;;;;;;;;;;;;;14.91;83.71;101365.81;4510747;31;33434;-74
2022/11/12 13:07:11;;;;;;;;;;;;;;;15.22;84.04;101361.47;4499026;31;35479;-74
2022/11/12 13:10:33;;;;;;;;;;;;;;;15.69;82.11;101359.63;4512225;31;34367;-75
2022/11/12 13:13:38;;;;;;;;;;;;;;;16.23;77.76;101353.66;4511559;31;36133;-74
2022/11/12 13:16:49;;;;;;;;;;;;;;;15.77;80.98;101357.28;4498561;31;33066;-75
2022/11/12 13:19:53;;;;;;;;;;;;;;;16.17;78.20;101353.75;4511649;31;33840;-74
2022/11/12 13:22:58;;;;;;;;;;;;;;;15.65;81.35;101357.72;4509376;31;34981;-74
2022/11/12 13:26:21;;;;;;;;;;;;;;;16.03;80.55;101355.69;4503268;31;35945;-74
2022/11/12 13:29:26;;;;;;;;;;;;;;;16.01;79.27;101354.34;4509695;31;34919;-75
2022/11/12 13:32:40;;;;;;;;;;;;;;;15.93;80.90;101351.16;4509983;31;34157;-74
2022/11/12 13:35:44;;;;;;;;;;;;;;;16.22;77.91;101349.22;4496764;31;34511;-74
2022/11/12 13:38:49;;;;;;;;;;;;;;;16.58;78.26;101352.91;4511311;31;36475;-75
2022/11/12 13:45:19;;;;;;;;;;;;;;;16.53;77.08;101350.22;4505000;31;33877;-74
2022/11/12 13:48:39;;;;;;;;;;;;;;;16.30;78.87;101354.06;4504354;31;34959;-74
2022/11/12 13:51:45;;;;;;;;;;;;;;;16.07;80.48;101358.66;4509917;31;36818;-75
2022/11/12 13:55:19;;;;;;;;;;;;;;;15.82;80.05;101362.72;4508822;31;34846;-74
2022/11/12 13:58:28;;;;;;;;;;;;;;;15.97;78.85;101362.44;4509051;31;34056;-74
2022/11/12 14:01:33;;;;;;;;;;;;;;;16.06;78.44;101363.38;4507020;31;34712;-74
2022/11/12 14:04:37;;;;;;;;;;;;;;;16.34;75.18;101363.38;4511071;31;36190;-75
2022/11/12 14:07:47;;;;;;;;;;;;;;;16.16;76.68;101363.16;4510843;31;34942;-75
2022/11/12 14:10:58;;;;;;;;;;;;;;;16.35;74.08;101373.31;4512642;31;35057;-75
2022/11/12 14:14:16;;;;;;;;;;;;;;;16.14;74.44;101361.84;4509732;31;35185;-74
2022/11/12 14:17:42;;;;;;;16.80;10.13;;;;;;;16.26;73.00;101358.56;4505327;31;36090;-75
2022/11/12 14:20:46;;;;;;;23.27;11.77;;;;;;;16.16;74.57;101348.50;4511739;31;34563;-74
2022/11/12 14:23:51;;;;;;;23.55;12.35;;;;;;;15.87;77.53;101354.34;4495135;31;34094;-74
2022/11/12 14:26:56;;;;;;;21.10;12.68;;;;;;;15.72;79.13;101359.03;4507897;31;34535;-75
2022/11/12 14:30:22;;;;;;;22.17;13.15;;;;;;;16.14;76.80;101359.09;4512731;31;35949;-75
2022/11/12 14:33:28;;;;;;;27.05;13.70;;;;;;;15.86;77.71;101347.19;4509936;31;35230;-74
2022/11/12 14:36:33;;;;;;;23.10;13.70;;;;;;;15.66;79.23;101359.37;4504906;31;32765;-74
2022/11/12 14:39:41;;;;;;;24.70;15.95;;;;;;;15.40;81.42;101353.50;4508990;31;33525;-74
2022/11/12 14:42:46;;;;;;;26.17;16.30;;;;;;;15.66;79.06;101360.22;4505714;31;34047;-74
2022/11/12 14:45:52;;;;;;;31.25;14.45;;;;;;;15.38;81.37;101359.28;4511556;31;34472;-74
2022/11/12 14:49:05;;;;;;;26.85;17.37;;;;;;;15.61;80.23;101357.53;4509313;31;32314;-74
2022/11/12 14:52:30;;;;;;;29.60;16.95;;;;;;;15.42;81.17;101348.47;4500314;31;34649;-74
2022/11/12 14:55:36;;;;;;;28.27;17.65;;;;;;;15.57;80.35;101356.50;4493963;31;32504;-74
2022/11/12 14:58:41;;;;;;;33.92;18.55;;;;;;;15.29;82.39;101350.06;4491957;31;32047;-74
2022/11/12 15:02:11;;;;;;;25.73;15.48;;;;;;;15.06;83.79;101360.91;4491923;31;34128;-74
2022/11/12 15:05:42;;;;;;;;;;;;;;;15.27;82.29;101350.34;4496024;31;33022;-75
2022/11/12 15:08:54;;;;;;;;;;;;;;;15.40;81.10;101350.72;4495950;31;36211;-75
2022/11/12 15:11:59;;;;;;;;;;;;;;;15.19;81.92;101362.06;4495558;31;34495;-74
2022/11/12 15:15:07;;;;;;;;;;;;;;;14.90;84.44;101358.66;4494333;31;34369;-74
2022/11/12 15:18:14;;;;;;;;;;;;;;;15.17;83.41;101369.88;4496036;31;36290;-75
2022/11/12 15:21:23;;;;;;;;;;;;;;;14.71;86.10;101362.22;4493711;31;36002;-75
2022/11/12 15:24:29;;;;;;;;;;;;;;;14.75;86.77;101365.22;4492842;31;34076;-75
2022/11/12 15:27:38;;;;;;;;;;;;;;;14.71;87.35;101370.50;4497081;31;32419;-75
2022/11/12 15:30:43;;;;;;;;;;;;;;;15.03;85.73;101368.97;4496050;31;34954;-75
2022/11/12 15:33:48;;;;;;;;;;;;;;;15.10;85.34;101374.09;4495839;31;34978;-75
2022/11/12 15:36:52;;;;;;;;;;;;;;;14.93;86.10;101375.44;4491734;31;35621;-75
2022/11/12 15:39:58;;;;;;;;;;;;;;;14.90;86.66;101369.72;4493882;31;34441;-75
2022/11/12 15:43:03;;;;;;;;;;;;;;;14.84;86.84;101369.78;4494217;31;35268;-75
2022/11/12 15:46:11;;;;;;;;;;;;;;;14.79;87.00;101374.53;4495800;31;35269;-75
2022/11/12 15:49:15;;;;;;;;;;;;;;;14.60;88.24;101378.12;4497098;31;33125;-75
2022/11/12 15:52:19;;;;;;;;;;;;;;;14.87;86.84;101381.34;4512727;31;33813;-75
2022/11/12 15:55:24;;;;;;;;;;;;;;;14.63;88.06;101387.75;4498742;31;35873;-75
2022/11/12 15:58:32;;;;;;;;;;;;;;;14.60;87.86;101391.09;4510418;31;35363;-74
2022/11/12 16:01:36;;;;;;;;;;;;;;;14.69;87.16;101394.81;4509054;31;35762;-74
2022/11/12 16:04:41;;;;;;;;;;;;;;;14.71;87.13;101395.31;4513633;31;34086;-74
2022/11/12 16:07:45;;;;;;;;;;;;;;;14.70;87.15;101392.87;4508241;31;34877;-74
2022/11/12 16:10:50;;;;;;;;;;;;;;;14.70;86.88;101390.13;4510904;31;34892;-75
2022/11/12 16:14:11;;;;;;;;;;;;;;;14.67;87.10;101394.28;4509088;31;34943;-74
2022/11/12 16:17:16;;;;;;;;;;;;;;;14.54;87.71;101398.59;4514102;31;34173;-75
2022/11/12 16:20:21;;;;;;;;;;;;;;;14.59;87.88;101398.50;4514139;31;35790;-75